sensor_id;sensor_type;location;lat;lon;timestamp;P1;durP1;ratioP1;P2;durP2;ratioP2
48667;SDS011;34453;52.198;5.004;2023-06-22T00:01:50;11.15;;;9.88;;
48667;SDS011;34453;52.198;5.004;2023-06-22T00:04:15;15.98;;;12.25;;
48667;SDS011;34453;52.198;5.004;2023-06-22T00:06:41;13.10;;;11.05;;
48667;SDS011;34453;52.198;5.004;2023-06-22T00:09:06;12.65;;;9.88;;
48667;SDS011;34453;52.198;5.004;2023-06-22T00:11:35;9.88;;;8.98;;
48667;SDS011;34453;52.198;5.004;2023-06-22T00:14:01;13.32;;;10.55;;
48667;SDS011;34453;52.198;5.004;2023-06-22T00:16:26;13.90;;;11.38;;
48667;SDS011;34453;52.198;5.004;2023-06-22T00:18:52;13.77;;;11.50;;
48667;SDS011;34453;52.198;5.004;2023-06-22T00:21:17;10.98;;;9.82;;
48667;SDS011;34453;52.198;5.004;2023-06-22T00:23:45;9.30;;;8.60;;
48667;SDS011;34453;52.198;5.004;2023-06-22T00:26:11;10.95;;;9.82;;
48667;SDS011;34453;52.198;5.004;2023-06-22T00:28:36;14.38;;;10.85;;
48667;SDS011;34453;52.198;5.004;2023-06-22T00:31:02;13.32;;;12.00;;
48667;SDS011;34453;52.198;5.004;2023-06-22T00:33:28;13.50;;;12.18;;
48667;SDS011;34453;52.198;5.004;2023-06-22T00:35:54;19.90;;;12.68;;
48667;SDS011;34453;52.198;5.004;2023-06-22T00:38:19;13.55;;;11.18;;
48667;SDS011;34453;52.198;5.004;2023-06-22T00:40:45;11.32;;;10.27;;
48667;SDS011;34453;52.198;5.004;2023-06-22T00:43:11;15.02;;;11.75;;
48667;SDS011;34453;52.198;5.004;2023-06-22T00:45:36;14.55;;;11.77;;
48667;SDS011;34453;52.198;5.004;2023-06-22T00:48:03;16.15;;;11.75;;
48667;SDS011;34453;52.198;5.004;2023-06-22T00:50:30;10.27;;;9.57;;
48667;SDS011;34453;52.198;5.004;2023-06-22T00:53:09;10.02;;;9.05;;
48667;SDS011;34453;52.198;5.004;2023-06-22T00:55:36;10.55;;;9.32;;
48667;SDS011;34453;52.198;5.004;2023-06-22T00:58:02;7.88;;;7.38;;
48667;SDS011;34453;52.198;5.004;2023-06-22T01:00:30;7.22;;;6.78;;
48667;SDS011;34453;52.198;5.004;2023-06-22T01:02:57;6.85;;;6.13;;
48667;SDS011;34453;52.198;5.004;2023-06-22T01:05:23;6.32;;;5.93;;
48667;SDS011;34453;52.198;5.004;2023-06-22T01:10:16;9.25;;;8.15;;
48667;SDS011;34453;52.198;5.004;2023-06-22T01:12:53;10.52;;;9.43;;
48667;SDS011;34453;52.198;5.004;2023-06-22T01:15:31;10.93;;;9.93;;
48667;SDS011;34453;52.198;5.004;2023-06-22T01:18:11;17.60;;;13.60;;
48667;SDS011;34453;52.198;5.004;2023-06-22T01:20:39;17.45;;;12.85;;
48667;SDS011;34453;52.198;5.004;2023-06-22T01:31:08;14.88;;;13.43;;
48667;SDS011;34453;52.198;5.004;2023-06-22T01:33:37;13.77;;;12.40;;
48667;SDS011;34453;52.198;5.004;2023-06-22T01:36:05;15.23;;;13.68;;
48667;SDS011;34453;52.198;5.004;2023-06-22T01:38:31;12.60;;;11.02;;
48667;SDS011;34453;52.198;5.004;2023-06-22T01:40:58;9.30;;;8.60;;
48667;SDS011;34453;52.198;5.004;2023-06-22T01:43:26;8.80;;;8.10;;
48667;SDS011;34453;52.198;5.004;2023-06-22T01:45:53;10.73;;;9.88;;
48667;SDS011;34453;52.198;5.004;2023-06-22T01:48:20;10.95;;;10.00;;
48667;SDS011;34453;52.198;5.004;2023-06-22T01:50:47;10.52;;;9.50;;
48667;SDS011;34453;52.198;5.004;2023-06-22T01:53:13;12.25;;;10.45;;
48667;SDS011;34453;52.198;5.004;2023-06-22T01:55:38;13.18;;;11.95;;
48667;SDS011;34453;52.198;5.004;2023-06-22T01:58:04;10.75;;;9.82;;
48667;SDS011;34453;52.198;5.004;2023-06-22T02:00:31;9.25;;;8.35;;
48667;SDS011;34453;52.198;5.004;2023-06-22T02:03:01;6.40;;;6.00;;
48667;SDS011;34453;52.198;5.004;2023-06-22T02:05:51;7.20;;;6.70;;
48667;SDS011;34453;52.198;5.004;2023-06-22T02:08:25;7.22;;;6.35;;
48667;SDS011;34453;52.198;5.004;2023-06-22T02:10:55;6.50;;;6.10;;
48667;SDS011;34453;52.198;5.004;2023-06-22T02:13:24;4.90;;;4.63;;
48667;SDS011;34453;52.198;5.004;2023-06-22T02:15:50;6.40;;;6.00;;
48667;SDS011;34453;52.198;5.004;2023-06-22T02:18:16;11.52;;;8.88;;
48667;SDS011;34453;52.198;5.004;2023-06-22T02:20:41;11.38;;;10.40;;
48667;SDS011;34453;52.198;5.004;2023-06-22T02:23:07;11.30;;;10.27;;
48667;SDS011;34453;52.198;5.004;2023-06-22T02:25:34;12.38;;;10.98;;
48667;SDS011;34453;52.198;5.004;2023-06-22T02:28:00;11.55;;;10.30;;
48667;SDS011;34453;52.198;5.004;2023-06-22T02:30:26;12.02;;;10.05;;
48667;SDS011;34453;52.198;5.004;2023-06-22T02:32:51;11.52;;;10.32;;
48667;SDS011;34453;52.198;5.004;2023-06-22T02:37:49;13.68;;;11.30;;
48667;SDS011;34453;52.198;5.004;2023-06-22T02:40:16;11.65;;;10.65;;
48667;SDS011;34453;52.198;5.004;2023-06-22T02:42:42;13.75;;;11.65;;
48667;SDS011;34453;52.198;5.004;2023-06-22T02:45:07;12.23;;;10.80;;
48667;SDS011;34453;52.198;5.004;2023-06-22T02:47:33;13.93;;;10.85;;
48667;SDS011;34453;52.198;5.004;2023-06-22T02:49:58;10.90;;;9.90;;
48667;SDS011;34453;52.198;5.004;2023-06-22T02:52:24;10.05;;;9.05;;
48667;SDS011;34453;52.198;5.004;2023-06-22T02:54:49;9.13;;;8.43;;
48667;SDS011;34453;52.198;5.004;2023-06-22T02:57:15;11.55;;;9.13;;
48667;SDS011;34453;52.198;5.004;2023-06-22T02:59:40;12.10;;;10.10;;
48667;SDS011;34453;52.198;5.004;2023-06-22T03:02:07;10.18;;;9.38;;
48667;SDS011;34453;52.198;5.004;2023-06-22T03:04:34;9.95;;;8.95;;
48667;SDS011;34453;52.198;5.004;2023-06-22T03:07:00;9.40;;;8.52;;
48667;SDS011;34453;52.198;5.004;2023-06-22T03:09:26;10.25;;;9.35;;
48667;SDS011;34453;52.198;5.004;2023-06-22T03:11:55;9.40;;;8.60;;
48667;SDS011;34453;52.198;5.004;2023-06-22T03:14:21;12.90;;;10.90;;
48667;SDS011;34453;52.198;5.004;2023-06-22T03:16:46;10.95;;;9.82;;
48667;SDS011;34453;52.198;5.004;2023-06-22T03:19:12;8.95;;;8.25;;
48667;SDS011;34453;52.198;5.004;2023-06-22T03:21:38;7.97;;;7.28;;
48667;SDS011;34453;52.198;5.004;2023-06-22T03:24:04;8.57;;;7.90;;
48667;SDS011;34453;52.198;5.004;2023-06-22T03:26:30;8.70;;;8.07;;
48667;SDS011;34453;52.198;5.004;2023-06-22T03:28:55;8.10;;;7.55;;
48667;SDS011;34453;52.198;5.004;2023-06-22T03:31:21;8.32;;;7.68;;
48667;SDS011;34453;52.198;5.004;2023-06-22T03:33:48;4.18;;;3.97;;
48667;SDS011;34453;52.198;5.004;2023-06-22T03:36:17;2.30;;;2.20;;
48667;SDS011;34453;52.198;5.004;2023-06-22T03:38:46;4.45;;;4.00;;
48667;SDS011;34453;52.198;5.004;2023-06-22T03:41:12;4.82;;;4.53;;
48667;SDS011;34453;52.198;5.004;2023-06-22T03:43:38;6.50;;;6.10;;
48667;SDS011;34453;52.198;5.004;2023-06-22T03:46:04;5.60;;;5.20;;
48667;SDS011;34453;52.198;5.004;2023-06-22T03:48:30;4.07;;;3.78;;
48667;SDS011;34453;52.198;5.004;2023-06-22T03:50:55;2.97;;;2.88;;
48667;SDS011;34453;52.198;5.004;2023-06-22T03:53:21;3.35;;;3.15;;
48667;SDS011;34453;52.198;5.004;2023-06-22T03:55:53;4.30;;;4.10;;
48667;SDS011;34453;52.198;5.004;2023-06-22T03:58:19;4.03;;;3.75;;
48667;SDS011;34453;52.198;5.004;2023-06-22T04:00:46;4.32;;;4.13;;
48667;SDS011;34453;52.198;5.004;2023-06-22T04:03:12;3.80;;;3.60;;
48667;SDS011;34453;52.198;5.004;2023-06-22T04:05:39;4.05;;;3.75;;
48667;SDS011;34453;52.198;5.004;2023-06-22T04:08:05;3.75;;;3.55;;
48667;SDS011;34453;52.198;5.004;2023-06-22T04:10:30;4.88;;;4.57;;
48667;SDS011;34453;52.198;5.004;2023-06-22T04:12:56;4.30;;;4.10;;
48667;SDS011;34453;52.198;5.004;2023-06-22T04:15:21;4.57;;;4.30;;
48667;SDS011;34453;52.198;5.004;2023-06-22T04:17:47;5.25;;;4.95;;
48667;SDS011;34453;52.198;5.004;2023-06-22T04:20:13;7.18;;;6.68;;
48667;SDS011;34453;52.198;5.004;2023-06-22T04:22:38;8.10;;;7.40;;
48667;SDS011;34453;52.198;5.004;2023-06-22T04:25:06;8.68;;;7.88;;
48667;SDS011;34453;52.198;5.004;2023-06-22T04:27:34;11.57;;;10.30;;
48667;SDS011;34453;52.198;5.004;2023-06-22T04:30:05;13.65;;;12.30;;
48667;SDS011;34453;52.198;5.004;2023-06-22T04:32:33;12.57;;;11.38;;
48667;SDS011;34453;52.198;5.004;2023-06-22T04:35:01;15.40;;;12.73;;
48667;SDS011;34453;52.198;5.004;2023-06-22T04:37:27;12.30;;;11.05;;
48667;SDS011;34453;52.198;5.004;2023-06-22T04:39:53;13.30;;;12.10;;
48667;SDS011;34453;52.198;5.004;2023-06-22T04:42:19;13.70;;;11.82;;
48667;SDS011;34453;52.198;5.004;2023-06-22T04:44:44;14.45;;;12.98;;
48667;SDS011;34453;52.198;5.004;2023-06-22T04:47:10;18.45;;;15.75;;
48667;SDS011;34453;52.198;5.004;2023-06-22T04:49:36;19.10;;;15.15;;
48667;SDS011;34453;52.198;5.004;2023-06-22T04:52:02;17.90;;;15.50;;
48667;SDS011;34453;52.198;5.004;2023-06-22T04:54:29;17.27;;;15.52;;
48667;SDS011;34453;52.198;5.004;2023-06-22T04:56:58;20.58;;;16.05;;
48667;SDS011;34453;52.198;5.004;2023-06-22T04:59:27;17.45;;;15.65;;
48667;SDS011;34453;52.198;5.004;2023-06-22T05:01:57;24.17;;;17.85;;
48667;SDS011;34453;52.198;5.004;2023-06-22T05:04:24;20.70;;;16.40;;
48667;SDS011;34453;52.198;5.004;2023-06-22T05:06:51;19.20;;;17.23;;
48667;SDS011;34453;52.198;5.004;2023-06-22T05:09:17;26.70;;;16.70;;
48667;SDS011;34453;52.198;5.004;2023-06-22T05:11:43;20.23;;;16.33;;
48667;SDS011;34453;52.198;5.004;2023-06-22T05:14:09;22.30;;;17.95;;
48667;SDS011;34453;52.198;5.004;2023-06-22T05:16:35;19.38;;;17.05;;
48667;SDS011;34453;52.198;5.004;2023-06-22T05:19:01;25.98;;;19.45;;
48667;SDS011;34453;52.198;5.004;2023-06-22T05:21:29;25.65;;;17.55;;
48667;SDS011;34453;52.198;5.004;2023-06-22T05:23:55;29.40;;;19.00;;
48667;SDS011;34453;52.198;5.004;2023-06-22T05:26:24;22.33;;;18.25;;
48667;SDS011;34453;52.198;5.004;2023-06-22T05:28:51;28.15;;;20.05;;
48667;SDS011;34453;52.198;5.004;2023-06-22T05:31:16;26.00;;;19.40;;
48667;SDS011;34453;52.198;5.004;2023-06-22T05:33:43;24.88;;;20.88;;
48667;SDS011;34453;52.198;5.004;2023-06-22T05:36:09;26.33;;;20.92;;
48667;SDS011;34453;52.198;5.004;2023-06-22T05:38:35;26.92;;;21.77;;
48667;SDS011;34453;52.198;5.004;2023-06-22T05:41:01;22.80;;;20.05;;
48667;SDS011;34453;52.198;5.004;2023-06-22T05:43:27;30.25;;;22.77;;
48667;SDS011;34453;52.198;5.004;2023-06-22T05:45:52;30.88;;;21.25;;
48667;SDS011;34453;52.198;5.004;2023-06-22T05:48:17;30.55;;;22.30;;
48667;SDS011;34453;52.198;5.004;2023-06-22T05:50:43;33.20;;;24.10;;
48667;SDS011;34453;52.198;5.004;2023-06-22T05:53:08;26.42;;;20.27;;
48667;SDS011;34453;52.198;5.004;2023-06-22T05:55:34;31.40;;;21.73;;
48667;SDS011;34453;52.198;5.004;2023-06-22T05:57:59;27.63;;;20.63;;
48667;SDS011;34453;52.198;5.004;2023-06-22T06:00:25;24.85;;;21.58;;
48667;SDS011;34453;52.198;5.004;2023-06-22T06:02:50;28.42;;;20.63;;
48667;SDS011;34453;52.198;5.004;2023-06-22T06:05:16;25.67;;;20.20;;
48667;SDS011;34453;52.198;5.004;2023-06-22T06:07:42;27.67;;;20.38;;
48667;SDS011;34453;52.198;5.004;2023-06-22T06:10:08;20.90;;;17.27;;
48667;SDS011;34453;52.198;5.004;2023-06-22T06:12:34;23.77;;;17.98;;
48667;SDS011;34453;52.198;5.004;2023-06-22T06:15:00;22.02;;;19.70;;
48667;SDS011;34453;52.198;5.004;2023-06-22T06:17:26;22.55;;;20.15;;
48667;SDS011;34453;52.198;5.004;2023-06-22T06:19:52;24.85;;;19.17;;
48667;SDS011;34453;52.198;5.004;2023-06-22T06:22:17;25.13;;;21.17;;
48667;SDS011;34453;52.198;5.004;2023-06-22T06:24:44;23.15;;;20.10;;
48667;SDS011;34453;52.198;5.004;2023-06-22T06:27:10;22.73;;;20.25;;
48667;SDS011;34453;52.198;5.004;2023-06-22T06:29:36;25.23;;;20.33;;
48667;SDS011;34453;52.198;5.004;2023-06-22T06:32:01;29.88;;;22.58;;
48667;SDS011;34453;52.198;5.004;2023-06-22T06:34:27;25.75;;;20.60;;
48667;SDS011;34453;52.198;5.004;2023-06-22T06:36:52;27.90;;;21.83;;
48667;SDS011;34453;52.198;5.004;2023-06-22T06:39:18;28.80;;;21.92;;
48667;SDS011;34453;52.198;5.004;2023-06-22T06:41:43;24.60;;;21.20;;
48667;SDS011;34453;52.198;5.004;2023-06-22T06:44:09;30.15;;;21.80;;
48667;SDS011;34453;52.198;5.004;2023-06-22T06:46:34;27.25;;;21.60;;
48667;SDS011;34453;52.198;5.004;2023-06-22T06:49:00;28.17;;;22.35;;
48667;SDS011;34453;52.198;5.004;2023-06-22T06:51:25;27.77;;;21.77;;
48667;SDS011;34453;52.198;5.004;2023-06-22T06:53:51;25.52;;;22.30;;
48667;SDS011;34453;52.198;5.004;2023-06-22T06:56:17;29.05;;;21.05;;
48667;SDS011;34453;52.198;5.004;2023-06-22T06:58:42;25.23;;;22.60;;
48667;SDS011;34453;52.198;5.004;2023-06-22T07:01:10;27.65;;;24.15;;
48667;SDS011;34453;52.198;5.004;2023-06-22T07:03:38;30.88;;;23.45;;
48667;SDS011;34453;52.198;5.004;2023-06-22T07:06:04;29.60;;;22.38;;
48667;SDS011;34453;52.198;5.004;2023-06-22T07:08:29;35.88;;;23.90;;
48667;SDS011;34453;52.198;5.004;2023-06-22T07:10:55;24.27;;;21.70;;
48667;SDS011;34453;52.198;5.004;2023-06-22T07:13:20;27.45;;;21.83;;
48667;SDS011;34453;52.198;5.004;2023-06-22T07:15:46;25.67;;;20.80;;
48667;SDS011;34453;52.198;5.004;2023-06-22T07:18:11;27.92;;;22.58;;
48667;SDS011;34453;52.198;5.004;2023-06-22T07:20:37;28.85;;;22.30;;
48667;SDS011;34453;52.198;5.004;2023-06-22T07:23:05;25.38;;;22.13;;
48667;SDS011;34453;52.198;5.004;2023-06-22T07:25:30;27.08;;;21.35;;
48667;SDS011;34453;52.198;5.004;2023-06-22T07:27:57;28.88;;;22.13;;
48667;SDS011;34453;52.198;5.004;2023-06-22T07:30:24;23.38;;;19.60;;
48667;SDS011;34453;52.198;5.004;2023-06-22T07:32:50;25.20;;;19.95;;
48667;SDS011;34453;52.198;5.004;2023-06-22T07:35:15;24.50;;;18.77;;
48667;SDS011;34453;52.198;5.004;2023-06-22T07:37:41;21.85;;;18.65;;
48667;SDS011;34453;52.198;5.004;2023-06-22T07:40:07;19.98;;;17.88;;
48667;SDS011;34453;52.198;5.004;2023-06-22T07:42:33;20.35;;;18.17;;
48667;SDS011;34453;52.198;5.004;2023-06-22T07:44:59;17.40;;;15.30;;
48667;SDS011;34453;52.198;5.004;2023-06-22T07:47:25;21.52;;;17.85;;
48667;SDS011;34453;52.198;5.004;2023-06-22T07:49:53;19.05;;;17.02;;
48667;SDS011;34453;52.198;5.004;2023-06-22T07:52:20;21.42;;;16.38;;
48667;SDS011;34453;52.198;5.004;2023-06-22T07:54:46;18.42;;;14.55;;
48667;SDS011;34453;52.198;5.004;2023-06-22T07:57:12;13.13;;;11.82;;
48667;SDS011;34453;52.198;5.004;2023-06-22T07:59:37;18.38;;;12.18;;
48667;SDS011;34453;52.198;5.004;2023-06-22T08:02:03;14.45;;;13.02;;
48667;SDS011;34453;52.198;5.004;2023-06-22T08:04:29;15.60;;;12.43;;
48667;SDS011;34453;52.198;5.004;2023-06-22T08:06:56;16.10;;;13.05;;
48667;SDS011;34453;52.198;5.004;2023-06-22T08:09:22;14.25;;;12.55;;
48667;SDS011;34453;52.198;5.004;2023-06-22T08:11:48;15.65;;;12.43;;
48667;SDS011;34453;52.198;5.004;2023-06-22T08:14:14;14.00;;;12.45;;
48667;SDS011;34453;52.198;5.004;2023-06-22T08:16:41;15.90;;;11.43;;
48667;SDS011;34453;52.198;5.004;2023-06-22T08:19:06;17.85;;;11.75;;
48667;SDS011;34453;52.198;5.004;2023-06-22T08:21:32;12.02;;;10.73;;
48667;SDS011;34453;52.198;5.004;2023-06-22T08:23:57;15.95;;;10.93;;
48667;SDS011;34453;52.198;5.004;2023-06-22T08:26:23;11.68;;;10.68;;
48667;SDS011;34453;52.198;5.004;2023-06-22T08:28:48;13.02;;;11.43;;
48667;SDS011;34453;52.198;5.004;2023-06-22T08:31:14;12.20;;;11.00;;
48667;SDS011;34453;52.198;5.004;2023-06-22T08:33:39;12.55;;;10.88;;
48667;SDS011;34453;52.198;5.004;2023-06-22T08:36:05;13.50;;;10.55;;
48667;SDS011;34453;52.198;5.004;2023-06-22T08:38:31;16.73;;;11.93;;
48667;SDS011;34453;52.198;5.004;2023-06-22T08:40:57;15.45;;;12.32;;
48667;SDS011;34453;52.198;5.004;2023-06-22T08:43:22;12.05;;;10.80;;
48667;SDS011;34453;52.198;5.004;2023-06-22T08:45:48;19.48;;;13.13;;
48667;SDS011;34453;52.198;5.004;2023-06-22T08:48:13;14.75;;;11.55;;
48667;SDS011;34453;52.198;5.004;2023-06-22T08:50:39;12.05;;;10.82;;
48667;SDS011;34453;52.198;5.004;2023-06-22T08:53:08;14.27;;;12.60;;
48667;SDS011;34453;52.198;5.004;2023-06-22T08:55:33;13.32;;;12.02;;
48667;SDS011;34453;52.198;5.004;2023-06-22T08:57:59;13.60;;;10.68;;
48667;SDS011;34453;52.198;5.004;2023-06-22T09:00:24;13.13;;;11.18;;
48667;SDS011;34453;52.198;5.004;2023-06-22T09:02:50;14.40;;;11.43;;
48667;SDS011;34453;52.198;5.004;2023-06-22T09:05:15;16.15;;;10.52;;
48667;SDS011;34453;52.198;5.004;2023-06-22T09:07:41;12.27;;;10.57;;
48667;SDS011;34453;52.198;5.004;2023-06-22T09:10:07;15.00;;;10.32;;
48667;SDS011;34453;52.198;5.004;2023-06-22T09:12:33;13.45;;;10.63;;
48667;SDS011;34453;52.198;5.004;2023-06-22T09:14:59;12.13;;;10.98;;
48667;SDS011;34453;52.198;5.004;2023-06-22T09:17:26;12.70;;;11.40;;
48667;SDS011;34453;52.198;5.004;2023-06-22T09:19:52;14.00;;;11.25;;
48667;SDS011;34453;52.198;5.004;2023-06-22T09:22:17;15.25;;;9.98;;
48667;SDS011;34453;52.198;5.004;2023-06-22T09:24:43;10.95;;;9.68;;
48667;SDS011;34453;52.198;5.004;2023-06-22T09:27:08;12.00;;;10.90;;
48667;SDS011;34453;52.198;5.004;2023-06-22T09:29:36;12.52;;;9.57;;
48667;SDS011;34453;52.198;5.004;2023-06-22T09:32:02;12.90;;;11.38;;
48667;SDS011;34453;52.198;5.004;2023-06-22T09:34:27;10.52;;;9.52;;
48667;SDS011;34453;52.198;5.004;2023-06-22T09:36:53;9.73;;;8.48;;
48667;SDS011;34453;52.198;5.004;2023-06-22T09:39:19;14.68;;;9.82;;
48667;SDS011;34453;52.198;5.004;2023-06-22T09:41:44;13.48;;;11.85;;
48667;SDS011;34453;52.198;5.004;2023-06-22T09:44:09;14.85;;;12.73;;
48667;SDS011;34453;52.198;5.004;2023-06-22T09:46:35;13.48;;;11.90;;
48667;SDS011;34453;52.198;5.004;2023-06-22T09:49:00;15.25;;;12.77;;
48667;SDS011;34453;52.198;5.004;2023-06-22T09:51:26;13.50;;;12.10;;
48667;SDS011;34453;52.198;5.004;2023-06-22T09:53:51;12.43;;;10.82;;
48667;SDS011;34453;52.198;5.004;2023-06-22T09:56:19;12.07;;;10.98;;
48667;SDS011;34453;52.198;5.004;2023-06-22T09:58:45;14.52;;;11.60;;
48667;SDS011;34453;52.198;5.004;2023-06-22T10:01:11;11.38;;;9.70;;
48667;SDS011;34453;52.198;5.004;2023-06-22T10:03:41;10.57;;;9.27;;
48667;SDS011;34453;52.198;5.004;2023-06-22T10:06:06;12.75;;;9.88;;
48667;SDS011;34453;52.198;5.004;2023-06-22T10:08:33;10.00;;;9.02;;
48667;SDS011;34453;52.198;5.004;2023-06-22T10:10:59;13.25;;;10.18;;
48667;SDS011;34453;52.198;5.004;2023-06-22T10:13:24;8.90;;;7.18;;
48667;SDS011;34453;52.198;5.004;2023-06-22T10:15:50;9.18;;;7.85;;
48667;SDS011;34453;52.198;5.004;2023-06-22T10:18:19;9.50;;;8.68;;
48667;SDS011;34453;52.198;5.004;2023-06-22T10:20:47;13.40;;;9.75;;
48667;SDS011;34453;52.198;5.004;2023-06-22T10:23:14;10.13;;;8.40;;
48667;SDS011;34453;52.198;5.004;2023-06-22T10:25:39;7.85;;;7.00;;
48667;SDS011;34453;52.198;5.004;2023-06-22T10:28:05;9.25;;;7.90;;
48667;SDS011;34453;52.198;5.004;2023-06-22T10:30:30;13.77;;;12.15;;
48667;SDS011;34453;52.198;5.004;2023-06-22T10:32:56;19.80;;;16.52;;
48667;SDS011;34453;52.198;5.004;2023-06-22T10:35:21;20.52;;;16.20;;
48667;SDS011;34453;52.198;5.004;2023-06-22T10:37:48;18.10;;;14.80;;
48667;SDS011;34453;52.198;5.004;2023-06-22T10:40:14;18.65;;;16.00;;
48667;SDS011;34453;52.198;5.004;2023-06-22T10:42:41;20.88;;;16.92;;
48667;SDS011;34453;52.198;5.004;2023-06-22T10:45:07;19.73;;;15.55;;
48667;SDS011;34453;52.198;5.004;2023-06-22T10:47:33;25.20;;;16.70;;
48667;SDS011;34453;52.198;5.004;2023-06-22T10:49:59;22.10;;;16.55;;
48667;SDS011;34453;52.198;5.004;2023-06-22T10:52:24;20.77;;;16.27;;
48667;SDS011;34453;52.198;5.004;2023-06-22T10:54:50;19.05;;;15.38;;
48667;SDS011;34453;52.198;5.004;2023-06-22T10:57:15;18.25;;;15.70;;
48667;SDS011;34453;52.198;5.004;2023-06-22T10:59:41;21.55;;;17.17;;
48667;SDS011;34453;52.198;5.004;2023-06-22T11:02:06;18.35;;;15.32;;
48667;SDS011;34453;52.198;5.004;2023-06-22T11:04:31;18.02;;;15.82;;
48667;SDS011;34453;52.198;5.004;2023-06-22T11:06:57;19.30;;;15.40;;
48667;SDS011;34453;52.198;5.004;2023-06-22T11:09:22;18.73;;;15.40;;
48667;SDS011;34453;52.198;5.004;2023-06-22T11:11:49;19.63;;;15.68;;
48667;SDS011;34453;52.198;5.004;2023-06-22T11:14:15;15.02;;;13.50;;
48667;SDS011;34453;52.198;5.004;2023-06-22T11:16:41;17.25;;;15.55;;
48667;SDS011;34453;52.198;5.004;2023-06-22T11:19:07;19.33;;;14.32;;
48667;SDS011;34453;52.198;5.004;2023-06-22T11:21:32;17.27;;;15.48;;
48667;SDS011;34453;52.198;5.004;2023-06-22T11:23:58;15.93;;;13.80;;
48667;SDS011;34453;52.198;5.004;2023-06-22T11:26:25;17.58;;;14.93;;
48667;SDS011;34453;52.198;5.004;2023-06-22T11:28:52;18.40;;;15.82;;
48667;SDS011;34453;52.198;5.004;2023-06-22T11:31:18;19.38;;;16.30;;
48667;SDS011;34453;52.198;5.004;2023-06-22T11:33:43;20.27;;;14.68;;
48667;SDS011;34453;52.198;5.004;2023-06-22T11:36:11;21.40;;;15.90;;
48667;SDS011;34453;52.198;5.004;2023-06-22T11:38:37;16.58;;;14.63;;
48667;SDS011;34453;52.198;5.004;2023-06-22T11:41:05;16.75;;;15.07;;
48667;SDS011;34453;52.198;5.004;2023-06-22T11:43:34;17.58;;;15.45;;
48667;SDS011;34453;52.198;5.004;2023-06-22T11:46:00;16.60;;;14.98;;
48667;SDS011;34453;52.198;5.004;2023-06-22T11:48:27;15.55;;;14.05;;
48667;SDS011;34453;52.198;5.004;2023-06-22T11:50:53;16.73;;;14.85;;
48667;SDS011;34453;52.198;5.004;2023-06-22T11:53:20;17.30;;;15.07;;
48667;SDS011;34453;52.198;5.004;2023-06-22T11:55:46;20.35;;;15.63;;
48667;SDS011;34453;52.198;5.004;2023-06-22T11:58:12;20.17;;;15.77;;
48667;SDS011;34453;52.198;5.004;2023-06-22T12:00:38;15.90;;;14.25;;
48667;SDS011;34453;52.198;5.004;2023-06-22T12:03:03;16.58;;;14.70;;
48667;SDS011;34453;52.198;5.004;2023-06-22T12:05:29;16.33;;;14.50;;
48667;SDS011;34453;52.198;5.004;2023-06-22T12:07:55;19.02;;;15.82;;
48667;SDS011;34453;52.198;5.004;2023-06-22T12:10:21;16.42;;;14.55;;
48667;SDS011;34453;52.198;5.004;2023-06-22T12:12:47;18.00;;;16.15;;
48667;SDS011;34453;52.198;5.004;2023-06-22T12:15:13;17.90;;;15.65;;
48667;SDS011;34453;52.198;5.004;2023-06-22T12:17:40;17.85;;;15.30;;
48667;SDS011;34453;52.198;5.004;2023-06-22T12:20:06;19.80;;;15.38;;
48667;SDS011;34453;52.198;5.004;2023-06-22T12:22:32;20.63;;;15.05;;
48667;SDS011;34453;52.198;5.004;2023-06-22T12:24:58;19.55;;;16.50;;
48667;SDS011;34453;52.198;5.004;2023-06-22T12:27:24;20.25;;;16.60;;
48667;SDS011;34453;52.198;5.004;2023-06-22T12:29:50;18.60;;;16.75;;
48667;SDS011;34453;52.198;5.004;2023-06-22T12:32:17;18.60;;;16.60;;
48667;SDS011;34453;52.198;5.004;2023-06-22T12:34:43;18.65;;;14.70;;
48667;SDS011;34453;52.198;5.004;2023-06-22T12:37:09;17.67;;;15.93;;
48667;SDS011;34453;52.198;5.004;2023-06-22T12:39:35;18.27;;;16.38;;
48667;SDS011;34453;52.198;5.004;2023-06-22T12:42:01;18.60;;;16.65;;
48667;SDS011;34453;52.198;5.004;2023-06-22T12:44:27;19.90;;;15.05;;
48667;SDS011;34453;52.198;5.004;2023-06-22T12:46:53;17.27;;;15.43;;
48667;SDS011;34453;52.198;5.004;2023-06-22T12:49:19;18.48;;;15.38;;
48667;SDS011;34453;52.198;5.004;2023-06-22T12:51:47;16.23;;;13.50;;
48667;SDS011;34453;52.198;5.004;2023-06-22T12:54:13;18.42;;;11.85;;
48667;SDS011;34453;52.198;5.004;2023-06-22T12:56:39;12.50;;;10.60;;
48667;SDS011;34453;52.198;5.004;2023-06-22T12:59:04;10.05;;;9.05;;
48667;SDS011;34453;52.198;5.004;2023-06-22T13:01:32;10.13;;;7.97;;
48667;SDS011;34453;52.198;5.004;2023-06-22T13:03:58;9.07;;;8.18;;
48667;SDS011;34453;52.198;5.004;2023-06-22T13:06:24;10.00;;;9.10;;
48667;SDS011;34453;52.198;5.004;2023-06-22T13:08:50;10.75;;;8.27;;
48667;SDS011;34453;52.198;5.004;2023-06-22T13:11:15;12.63;;;9.10;;
48667;SDS011;34453;52.198;5.004;2023-06-22T13:13:41;11.52;;;8.82;;
48667;SDS011;34453;52.198;5.004;2023-06-22T13:16:07;9.32;;;7.88;;
48667;SDS011;34453;52.198;5.004;2023-06-22T13:18:35;7.40;;;6.47;;
48667;SDS011;34453;52.198;5.004;2023-06-22T13:21:01;7.32;;;6.28;;
48667;SDS011;34453;52.198;5.004;2023-06-22T13:23:27;8.70;;;7.60;;
48667;SDS011;34453;52.198;5.004;2023-06-22T13:25:53;8.15;;;7.07;;
48667;SDS011;34453;52.198;5.004;2023-06-22T13:28:18;6.22;;;5.72;;
48667;SDS011;34453;52.198;5.004;2023-06-22T13:30:45;5.18;;;4.88;;
48667;SDS011;34453;52.198;5.004;2023-06-22T13:33:12;10.35;;;5.57;;
48667;SDS011;34453;52.198;5.004;2023-06-22T13:35:38;6.07;;;5.13;;
48667;SDS011;34453;52.198;5.004;2023-06-22T13:38:04;5.25;;;4.63;;
48667;SDS011;34453;52.198;5.004;2023-06-22T13:40:30;5.40;;;5.00;;
48667;SDS011;34453;52.198;5.004;2023-06-22T13:42:55;4.95;;;4.55;;
48667;SDS011;34453;52.198;5.004;2023-06-22T13:45:21;4.07;;;3.83;;
48667;SDS011;34453;52.198;5.004;2023-06-22T13:47:47;6.95;;;4.05;;
48667;SDS011;34453;52.198;5.004;2023-06-22T13:50:13;4.45;;;4.07;;
48667;SDS011;34453;52.198;5.004;2023-06-22T13:52:39;4.15;;;3.75;;
48667;SDS011;34453;52.198;5.004;2023-06-22T13:55:05;4.72;;;3.78;;
48667;SDS011;34453;52.198;5.004;2023-06-22T13:57:32;4.47;;;4.18;;
48667;SDS011;34453;52.198;5.004;2023-06-22T13:59:58;5.78;;;4.32;;
48667;SDS011;34453;52.198;5.004;2023-06-22T14:02:25;4.22;;;3.88;;
48667;SDS011;34453;52.198;5.004;2023-06-22T14:04:51;5.00;;;4.50;;
48667;SDS011;34453;52.198;5.004;2023-06-22T14:07:16;4.75;;;4.35;;
48667;SDS011;34453;52.198;5.004;2023-06-22T14:09:42;13.13;;;4.43;;
48667;SDS011;34453;52.198;5.004;2023-06-22T14:12:07;7.47;;;4.88;;
48667;SDS011;34453;52.198;5.004;2023-06-22T14:14:33;6.05;;;4.60;;
48667;SDS011;34453;52.198;5.004;2023-06-22T14:16:59;9.10;;;5.70;;
48667;SDS011;34453;52.198;5.004;2023-06-22T14:19:25;5.38;;;4.97;;
48667;SDS011;34453;52.198;5.004;2023-06-22T14:21:50;6.43;;;4.70;;
48667;SDS011;34453;52.198;5.004;2023-06-22T14:24:17;5.50;;;4.93;;
48667;SDS011;34453;52.198;5.004;2023-06-22T14:26:42;4.68;;;4.30;;
48667;SDS011;34453;52.198;5.004;2023-06-22T14:29:08;5.25;;;4.85;;
48667;SDS011;34453;52.198;5.004;2023-06-22T14:31:34;7.90;;;5.10;;
48667;SDS011;34453;52.198;5.004;2023-06-22T14:33:59;7.60;;;4.65;;
48667;SDS011;34453;52.198;5.004;2023-06-22T14:36:25;8.77;;;4.38;;